createdAt,value
2022-11-20T00:03:12.274Z,-4.34
2022-11-20T00:08:35.133Z,-4.45
2022-11-20T00:13:58.593Z,-4.65
2022-11-20T00:19:20.955Z,-4.78
2022-11-20T00:24:43.382Z,-4.88
2022-11-20T00:30:10.008Z,-4.85
2022-11-20T00:35:34.415Z,-4.75
2022-11-20T00:40:58.635Z,-4.73
2022-11-20T00:46:23.044Z,-4.62
2022-11-20T00:51:44.869Z,-4.64
2022-11-20T00:57:06.873Z,-4.82
2022-11-20T01:02:28.755Z,-4.87
2022-11-20T01:07:50.731Z,-4.95
2022-11-20T01:13:30.755Z,-5.07
2022-11-20T01:18:54.577Z,-5.07
2022-11-20T01:24:18.790Z,-4.97
2022-11-20T01:29:40.727Z,-4.97
2022-11-20T01:35:03.071Z,-4.99
2022-11-20T01:40:24.986Z,-4.98
2022-11-20T01:46:17.312Z,-4.78
2022-11-20T01:51:52.187Z,-4.94
2022-11-20T01:57:14.829Z,-4.88
2022-11-20T02:02:38.263Z,-4.73
2022-11-20T02:08:00.694Z,-4.85
2022-11-20T02:13:41.698Z,-4.94
2022-11-20T02:19:05.727Z,-4.98
2022-11-20T02:24:27.511Z,-4.94
2022-11-20T02:29:53.303Z,-5.05
2022-11-20T02:35:20.750Z,-5.24
2022-11-20T02:40:43.379Z,-5.37
2022-11-20T02:46:09.331Z,-5.16
2022-11-20T02:51:31.553Z,-4.76
2022-11-20T02:56:53.884Z,-4.52
2022-11-20T03:02:15.822Z,-4.50
2022-11-20T03:07:37.979Z,-4.41
2022-11-20T03:12:59.932Z,-4.50
2022-11-20T03:18:21.902Z,-4.51
2022-11-20T03:23:43.931Z,-4.47
2022-11-20T03:29:06.563Z,-4.50
2022-11-20T03:34:28.464Z,-4.44
2022-11-20T03:39:50.250Z,-4.38
2022-11-20T03:45:13.403Z,-4.34
2022-11-20T03:50:34.985Z,-4.24
2022-11-20T03:55:57.015Z,-4.21
2022-11-20T04:01:21.227Z,-4.24
2022-11-20T04:06:43.066Z,-4.29
2022-11-20T04:12:05.521Z,-4.54
2022-11-20T04:17:27.339Z,-4.61
2022-11-20T04:22:49.478Z,-4.58
2022-11-20T04:28:11.499Z,-4.66
2022-11-20T04:33:34.581Z,-4.69
2022-11-20T04:39:07.182Z,-4.61
2022-11-20T04:44:29.028Z,-4.72
2022-11-20T04:49:50.919Z,-4.78
2022-11-20T04:55:12.686Z,-4.71
2022-11-20T05:00:34.715Z,-4.58
2022-11-20T05:05:56.946Z,-4.49
2022-11-20T05:11:21.283Z,-4.57
2022-11-20T05:16:43.355Z,-4.76
2022-11-20T05:22:06.200Z,-4.72
2022-11-20T05:27:28.579Z,-4.87
2022-11-20T05:32:50.259Z,-4.98
2022-11-20T05:38:12.446Z,-4.93
2022-11-20T05:43:35.874Z,-4.91
2022-11-20T05:48:59.014Z,-5.03
2022-11-20T05:54:21.014Z,-5.04
2022-11-20T05:59:43.932Z,-4.91
2022-11-20T06:05:06.444Z,-4.88
2022-11-20T06:10:28.228Z,-4.99
2022-11-20T06:15:54.169Z,-5.16
2022-11-20T06:21:20.871Z,-5.36
2022-11-20T06:26:43.052Z,-5.43
2022-11-20T06:32:05.387Z,-5.25
2022-11-20T06:37:27.205Z,-5.15
2022-11-20T06:42:49.171Z,-5.07
2022-11-20T06:48:11.015Z,-4.97
2022-11-20T06:53:33.696Z,-5.00
2022-11-20T06:58:55.429Z,-5.11
2022-11-20T07:04:16.969Z,-4.94
2022-11-20T07:09:38.837Z,-4.58
2022-11-20T07:15:00.714Z,-4.45
2022-11-20T07:20:22.822Z,-4.55
2022-11-20T07:25:44.895Z,-4.83
2022-11-20T07:31:08.531Z,-4.82
2022-11-20T07:36:30.566Z,-4.71
2022-11-20T07:41:52.565Z,-4.52
2022-11-20T07:47:14.239Z,-4.10
2022-11-20T07:52:36.423Z,-3.73
2022-11-20T07:57:58.654Z,-3.32
2022-11-20T08:03:24.599Z,-2.93
2022-11-20T08:08:46.930Z,-2.67
2022-11-20T08:14:14.718Z,-2.40
2022-11-20T08:19:38.816Z,-2.09
2022-11-20T08:25:00.746Z,-1.84
2022-11-20T08:30:22.574Z,-1.51
2022-11-20T08:35:44.337Z,-1.17
2022-11-20T08:41:24.680Z,-0.83
2022-11-20T08:46:48.255Z,-0.60
2022-11-20T08:52:09.760Z,-0.47
2022-11-20T08:57:38.413Z,-0.26
2022-11-20T09:03:02.295Z,-0.12
2022-11-20T09:08:24.608Z,0.00
2022-11-20T09:13:46.408Z,0.22
2022-11-20T09:19:34.064Z,0.46
2022-11-20T09:24:50.339Z,0.49
2022-11-20T09:30:14.004Z,0.57
2022-11-20T09:35:35.903Z,0.68
2022-11-20T09:40:59.879Z,0.74
2022-11-20T09:46:48.761Z,0.88
2022-11-20T09:52:42.510Z,1.22
2022-11-20T09:58:07.845Z,1.35
2022-11-20T10:04:25.569Z,1.40
2022-11-20T10:10:05.881Z,1.53
2022-11-20T10:15:55.091Z,1.74
2022-11-20T10:22:02.277Z,1.81
2022-11-20T10:27:34.026Z,1.94
2022-11-20T10:33:17.645Z,2.06
2022-11-20T10:38:43.709Z,2.07
2022-11-20T10:44:40.442Z,2.20
2022-11-20T10:50:05.954Z,2.11
2022-11-20T10:55:46.727Z,2.17
2022-11-20T11:01:17.487Z,2.19
2022-11-20T11:06:44.104Z,2.23
2022-11-20T11:12:12.642Z,2.33
2022-11-20T11:17:34.630Z,2.44
2022-11-20T11:22:58.502Z,2.61
2022-11-20T11:28:26.992Z,2.69
2022-11-20T11:33:49.185Z,2.80
2022-11-20T11:39:16.059Z,2.70
2022-11-20T11:44:56.551Z,2.73
2022-11-20T11:50:22.443Z,2.82
2022-11-20T11:56:16.611Z,2.77
2022-11-20T12:01:50.163Z,2.81
2022-11-20T12:13:07.378Z,2.72
2022-11-20T12:18:29.790Z,2.75
2022-11-20T12:23:54.469Z,2.81
2022-11-20T12:29:25.703Z,2.82
2022-11-20T12:35:11.404Z,2.78
2022-11-20T12:40:42.776Z,2.73
2022-11-20T12:46:26.713Z,2.80
2022-11-20T12:52:22.375Z,2.80
2022-11-20T12:57:52.878Z,2.78
2022-11-20T13:03:20.279Z,2.82
2022-11-20T13:08:44.442Z,2.78
2022-11-20T13:14:36.098Z,2.63
2022-11-20T13:19:59.887Z,2.63
2022-11-20T13:25:33.153Z,2.67
2022-11-20T13:30:56.036Z,2.59
2022-11-20T13:36:24.417Z,2.39
2022-11-20T13:41:55.851Z,2.40
2022-11-20T13:47:30.123Z,2.32
2022-11-20T13:53:02.990Z,2.34
2022-11-20T13:58:34.152Z,2.43
2022-11-20T14:04:11.133Z,2.54
2022-11-20T14:09:34.369Z,2.55
2022-11-20T14:14:56.741Z,2.58
2022-11-20T14:20:24.147Z,2.68
2022-11-20T14:25:46.278Z,2.62
2022-11-20T14:31:20.250Z,2.64
2022-11-20T14:36:44.213Z,2.73
2022-11-20T14:42:17.003Z,2.67
2022-11-20T14:47:39.858Z,2.53
2022-11-20T14:53:02.318Z,2.47
2022-11-20T14:58:27.302Z,2.49
2022-11-20T15:04:19.123Z,2.50
2022-11-20T15:09:40.983Z,2.54
2022-11-20T15:15:04.422Z,2.74
2022-11-20T15:20:32.305Z,2.87
2022-11-20T15:25:53.870Z,2.85
2022-11-20T15:31:18.539Z,2.81
2022-11-20T15:36:41.108Z,2.73
2022-11-20T15:42:02.536Z,2.70
2022-11-20T15:47:29.398Z,2.65
2022-11-20T15:52:51.681Z,2.66
2022-11-20T15:58:14.451Z,2.71
2022-11-20T16:03:36.326Z,2.78
2022-11-20T16:08:58.206Z,2.84
2022-11-20T16:14:38.608Z,2.88
2022-11-20T16:20:00.547Z,2.90
2022-11-20T16:25:22.454Z,2.91
2022-11-20T16:30:44.685Z,2.83
2022-11-20T16:36:14.841Z,2.86
2022-11-20T16:41:37.582Z,2.84
2022-11-20T16:46:59.202Z,2.91
2022-11-20T16:52:20.830Z,2.79
2022-11-20T16:57:42.821Z,2.63
2022-11-20T17:03:06.213Z,2.50
2022-11-20T17:08:30.633Z,2.45
2022-11-20T17:13:52.843Z,2.42
2022-11-20T17:19:15.795Z,2.37
2022-11-20T17:24:37.450Z,2.30
2022-11-20T17:29:59.356Z,2.32
2022-11-20T17:35:21.291Z,2.30
2022-11-20T17:40:43.212Z,2.25
2022-11-20T17:46:13.030Z,2.15
2022-11-20T17:51:35.419Z,2.03
2022-11-20T17:57:16.192Z,1.94
2022-11-20T18:02:38.127Z,1.85
2022-11-20T18:08:00.089Z,1.77
2022-11-20T18:13:45.008Z,1.75
2022-11-20T18:19:12.063Z,1.67
2022-11-20T18:24:34.415Z,1.62
2022-11-20T18:29:58.982Z,1.59
2022-11-20T18:35:20.857Z,1.70
2022-11-20T18:40:42.619Z,1.75
2022-11-20T18:46:04.970Z,1.67
2022-11-20T18:51:26.715Z,1.65
2022-11-20T18:56:48.834Z,1.61
2022-11-20T19:02:16.279Z,1.69
2022-11-20T19:07:38.163Z,1.74
2022-11-20T19:13:00.537Z,1.77
2022-11-20T19:18:22.377Z,1.72
2022-11-20T19:23:48.226Z,1.66
2022-11-20T19:29:15.618Z,1.52
2022-11-20T19:34:37.687Z,1.57
2022-11-20T19:39:59.854Z,1.63
2022-11-20T19:45:21.950Z,1.63
2022-11-20T19:50:43.830Z,1.66
2022-11-20T19:56:06.409Z,1.60
2022-11-20T20:01:30.904Z,1.54
2022-11-20T20:06:52.595Z,1.51
2022-11-20T20:12:14.708Z,1.52
2022-11-20T20:17:36.788Z,1.50
2022-11-20T20:22:58.868Z,1.43
2022-11-20T20:28:20.494Z,1.40
2022-11-20T20:33:43.496Z,1.41
2022-11-20T20:39:05.060Z,1.59
2022-11-20T20:44:45.248Z,1.68
2022-11-20T20:50:10.855Z,1.74
2022-11-20T20:55:34.224Z,1.69
2022-11-20T21:01:02.318Z,1.71
2022-11-20T21:06:24.633Z,1.86
2022-11-20T21:11:46.376Z,1.91
2022-11-20T21:17:13.698Z,1.88
2022-11-20T21:22:36.923Z,1.90
2022-11-20T21:27:58.475Z,2.15
2022-11-20T21:33:20.378Z,2.43
2022-11-20T21:38:42.808Z,2.62
2022-11-20T21:49:48.050Z,2.68
2022-11-20T21:55:10.080Z,2.66
2022-11-20T22:00:31.798Z,2.67
2022-11-20T22:05:57.545Z,2.76
2022-11-20T22:11:21.398Z,2.82
2022-11-20T22:16:43.407Z,2.90
2022-11-20T22:22:05.435Z,2.95
2022-11-20T22:27:26.935Z,2.96
2022-11-20T22:32:48.896Z,2.89
2022-11-20T22:38:10.923Z,2.89
2022-11-20T22:43:33.423Z,2.91
2022-11-20T22:49:01.893Z,2.91
2022-11-20T22:54:24.189Z,2.87
2022-11-20T22:59:46.221Z,2.82
2022-11-20T23:05:08.397Z,2.84
2022-11-20T23:10:30.157Z,2.97
2022-11-20T23:15:52.142Z,3.04
2022-11-20T23:21:16.983Z,3.09
2022-11-20T23:26:41.283Z,3.14
2022-11-20T23:32:03.186Z,2.94
2022-11-20T23:37:25.219Z,2.36
2022-11-20T23:43:06.089Z,2.31
2022-11-20T23:48:32.535Z,2.55
2022-11-20T23:53:54.263Z,2.76
2022-11-20T23:59:15.847Z,2.92
